RUNWAY INFORMATION
Runway Length Width Elevation Displaced
Threshold
Heading | Runway Length Width Elevation Displaced
Threshold
Heading
10 9636 ft 148 ft 779 ft 312 ft 105 | 28 9636 ft 148 ft 754 ft 427 ft 285
12 2552 ft 59 ft 782 ft 210 ft 121 | 30 2552 ft 59 ft 782 ft 328 ft 301

 AIRPORT FREQUENCIES
Type APP Name MILANO APP Frequency 126.75 MHZ
Type ATIS Name ATIS Frequency 112.6 MHZ
Type GND Name ORIO GND Frequency 120.5 MHZ
Type TWR Name ORIO TWR Frequency 126.5 MHZ

 AIRPORT NEAR NAVIGATION AIDS
Type VOR-DME Name Orio Al Serio Frequency 112600 KHZ
Type NDB Name Orio Al Serio Frequency 377 KHZ

 METAR AND TAF INFORMATION
METAR FOR LIME
ADDS - METARS form results

(0513 UTC 23 January 2022)
Data provider http://aviationweather.gov/metar/data/
 
METAR text: LIME 230450Z AUTO 02004KT 9999 NCD M00/M02 Q1028
Conditions at: LIME (BERGAMO/ORIO SER, IT) observed 0450 UTC 23 January 2022
Temperature: 0.0°C (32°F)
Dewpoint: -2.0°C (28°F) [RH = 86%]
Pressure (altimeter): 30.35 inches Hg (1028.0 mb)
Winds: from the NNE (20 degrees) at 5 MPH (4 knots; 2.1 m/s)
Visibility: 6 or more miles (10+ km)
Ceiling: at least 12,000 feet AGL
Clouds: sky clear below 12,000 feet AGL
Weather: no significant weather observed at this time

METAR text: LIME 230420Z AUTO 01004KT 9999 NCD M00/M02 Q1028
Conditions at: LIME (BERGAMO/ORIO SER, IT) observed 0420 UTC 23 January 2022
Temperature: 0.0°C (32°F)
Dewpoint: -2.0°C (28°F) [RH = 86%]
Pressure (altimeter): 30.35 inches Hg (1028.0 mb)
Winds: from the N (10 degrees) at 5 MPH (4 knots; 2.1 m/s)
Visibility: 6 or more miles (10+ km)
Ceiling: at least 12,000 feet AGL
Clouds: sky clear below 12,000 feet AGL
Weather: no significant weather observed at this time

Forecast for: LIME (BERGAMO/ORIO SER, IT)
Text: TAF LIME 222300Z 2300/2324 VRB05KT CAVOK
Forecast period: 0000 UTC 23 January 2022 to 0000 UTC 24 January 2022
Forecast type: FROM: standard forecast or significant change
Winds: variable direction winds at 6 MPH (5 knots; 2.6 m/s)
Visibility: 6 or more miles (10+ km)
Ceiling: unknown
Clouds: missing
Weather: NSW  (no significant weather)



© 2013 - 2022, FlightSimLog.org - Powered by Virtual Airlines Manager